Time;durP1;ratioP1;P1;durP2;ratioP2;P2;SDS_P1;SDS_P2;PMS_P1;PMS_P2;Temp;Humidity;BMP_temperature;BMP_pressure;BME280_temperature;BME280_humidity;BME280_pressure;Samples;Min_cycle;Max_cycle;Signal;HPM_P1;HPM_P2
2023/07/02 00:00:09;;;;;;;12.27;6.50;;;21.30;99.90;;;;;;5048965;28;20052;-55
2023/07/02 00:03:13;;;;;;;12.93;6.55;;;21.20;99.90;;;;;;5049156;28;20535;-54
2023/07/02 00:06:18;;;;;;;9.88;6.22;;;21.30;99.90;;;;;;5049335;28;20507;-55
2023/07/02 00:09:22;;;;;;;12.90;6.85;;;21.30;99.90;;;;;;5049180;28;20048;-49
2023/07/02 00:12:29;;;;;;;14.20;6.78;;;21.30;99.90;;;;;;5049119;28;20605;-52
2023/07/02 00:15:32;;;;;;;10.10;6.20;;;21.30;99.90;;;;;;5051618;28;20044;-54
2023/07/02 00:18:36;;;;;;;12.20;6.68;;;21.30;99.90;;;;;;5052896;28;20048;-54
2023/07/02 00:21:41;;;;;;;12.80;6.50;;;21.30;99.90;;;;;;5052177;28;20040;-54
2023/07/02 00:24:45;;;;;;;8.38;5.97;;;21.20;99.90;;;;;;5051832;28;20040;-55
2023/07/02 00:27:49;;;;;;;10.52;6.45;;;21.20;99.90;;;;;;5052428;28;20510;-55
2023/07/02 00:30:53;;;;;;;9.95;5.90;;;21.20;99.90;;;;;;5039518;28;20040;-54
2023/07/02 00:33:56;;;;;;;15.43;6.85;;;21.20;99.90;;;;;;5039954;28;20047;-53
2023/07/02 00:37:00;;;;;;;13.85;6.43;;;21.30;99.90;;;;;;5051824;28;20048;-51
2023/07/02 00:40:05;;;;;;;12.90;6.95;;;21.30;99.90;;;;;;5039620;28;20537;-54
2023/07/02 00:43:12;;;;;;;14.13;6.05;;;21.30;99.90;;;;;;5051395;28;20116;-52
2023/07/02 00:46:19;;;;;;;9.77;7.03;;;21.30;99.90;;;;;;5039666;28;20079;-53
2023/07/02 00:49:24;;;;;;;12.85;6.28;;;21.30;99.90;;;;;;5039418;28;20044;-55
2023/07/02 00:52:28;;;;;;;14.45;5.88;;;21.30;99.90;;;;;;5051377;28;20076;-55
2023/07/02 00:55:31;;;;;;;13.35;6.50;;;21.20;99.90;;;;;;5051698;28;20048;-53
2023/07/02 00:58:39;;;;;;;14.38;7.18;;;21.20;99.90;;;;;;5039385;28;20032;-54
2023/07/02 01:01:49;;;;;;;11.65;6.05;;;21.10;99.90;;;;;;5038920;28;20395;-51
2023/07/02 01:04:57;;;;;;;13.85;6.80;;;21.10;99.90;;;;;;5051637;28;20043;-54
2023/07/02 01:08:06;;;;;;;19.48;8.45;;;21.10;99.90;;;;;;5039142;28;20040;-54
2023/07/02 01:11:10;;;;;;;13.82;7.32;;;21.00;99.90;;;;;;5039096;28;20056;-54
2023/07/02 01:14:24;;;;;;;16.50;7.38;;;21.00;99.90;;;;;;5038740;28;20040;-54
2023/07/02 01:17:37;;;;;;;17.25;6.78;;;20.90;99.90;;;;;;5051716;28;20052;-54
2023/07/02 01:20:42;;;;;;;11.90;7.45;;;20.90;99.90;;;;;;5039127;28;20056;-54
2023/07/02 01:23:47;;;;;;;11.90;7.38;;;20.80;99.90;;;;;;5039237;28;20048;-54
2023/07/02 01:26:51;;;;;;;13.68;7.63;;;20.80;99.90;;;;;;5051417;28;20407;-53
2023/07/02 01:29:55;;;;;;;12.43;7.80;;;20.90;99.90;;;;;;5038845;28;20052;-51
2023/07/02 01:32:59;;;;;;;14.02;9.02;;;20.90;99.90;;;;;;5038568;28;20056;-51
2023/07/02 01:36:04;;;;;;;12.13;7.82;;;20.90;99.90;;;;;;5050980;28;20334;-54
2023/07/02 01:39:08;;;;;;;15.18;8.65;;;20.80;99.90;;;;;;5038561;28;20052;-55
2023/07/02 01:42:17;;;;;;;19.77;9.02;;;20.80;99.90;;;;;;5037872;28;20044;-53
2023/07/02 01:45:20;;;;;;;14.65;9.18;;;20.70;99.90;;;;;;5038543;28;20040;-55
2023/07/02 01:48:24;;;;;;;14.50;8.38;;;20.70;99.90;;;;;;5050609;28;20052;-52
2023/07/02 01:51:28;;;;;;;16.23;8.35;;;20.60;99.90;;;;;;5050165;28;20431;-53
2023/07/02 01:54:35;;;;;;;15.27;8.13;;;20.60;99.90;;;;;;5038337;28;20047;-54
2023/07/02 01:57:39;;;;;;;16.27;7.78;;;20.50;99.90;;;;;;5038237;28;20048;-51
2023/07/02 02:00:43;;;;;;;16.20;9.52;;;20.50;99.90;;;;;;5038680;28;20048;-53
2023/07/02 02:03:47;;;;;;;18.85;11.75;;;20.40;99.90;;;;;;5050789;28;20036;-54
2023/07/02 02:06:52;;;;;;;19.52;11.52;;;20.40;99.90;;;;;;5038522;28;20517;-52
2023/07/02 02:09:56;;;;;;;17.00;9.43;;;20.30;99.90;;;;;;5038140;28;20059;-51
2023/07/02 02:13:00;;;;;;;13.70;8.55;;;20.30;99.90;;;;;;5037952;28;20048;-51
2023/07/02 02:16:04;;;;;;;16.30;9.23;;;20.20;99.90;;;;;;5050525;28;20052;-55
2023/07/02 02:19:08;;;;;;;17.58;8.52;;;20.10;99.90;;;;;;5050645;28;20047;-53
2023/07/02 02:22:11;;;;;;;11.73;8.05;;;20.10;99.90;;;;;;5050484;28;20486;-55
2023/07/02 02:25:16;;;;;;;15.38;8.05;;;20.00;99.90;;;;;;5050473;28;20051;-53
2023/07/02 02:28:20;;;;;;;15.35;8.30;;;19.90;99.90;;;;;;5050658;28;20044;-52
2023/07/02 02:31:23;;;;;;;15.93;8.40;;;19.90;99.90;;;;;;5037781;28;20060;-52
2023/07/02 02:34:29;;;;;;;14.63;8.07;;;19.80;99.90;;;;;;5038155;28;20053;-55
2023/07/02 02:37:37;;;;;;;15.05;8.55;;;19.80;99.90;;;;;;5037680;28;20518;-52
2023/07/02 02:40:41;;;;;;;16.30;8.48;;;19.70;99.90;;;;;;5038292;28;20391;-52
2023/07/02 02:43:47;;;;;;;15.07;8.18;;;19.70;99.90;;;;;;5037900;28;20059;-50
2023/07/02 02:46:55;;;;;;;18.27;8.32;;;19.70;99.90;;;;;;5038193;28;20052;-55
2023/07/02 02:50:01;;;;;;;21.65;9.23;;;19.60;99.90;;;;;;5037717;28;20048;-53
2023/07/02 02:53:05;;;;;;;14.95;7.95;;;19.60;99.90;;;;;;5037182;28;20051;-55
2023/07/02 02:56:09;;;;;;;17.42;8.57;;;19.50;99.90;;;;;;5037339;28;20056;-52
2023/07/02 02:59:13;;;;;;;12.45;8.32;;;19.50;99.90;;;;;;5037433;28;20036;-55
2023/07/02 03:02:17;;;;;;;18.15;7.40;;;19.50;99.90;;;;;;5036998;28;20056;-52
2023/07/02 03:05:21;;;;;;;12.80;8.07;;;19.40;99.90;;;;;;5037456;28;20507;-52
2023/07/02 03:08:25;;;;;;;12.68;7.65;;;19.40;99.90;;;;;;5049558;28;20044;-54
2023/07/02 03:11:29;;;;;;;14.45;7.38;;;19.30;99.90;;;;;;5049527;28;20518;-50
2023/07/02 03:14:32;;;;;;;17.13;8.13;;;19.30;99.90;;;;;;5049675;28;20040;-54
2023/07/02 03:17:38;;;;;;;10.43;7.25;;;19.30;99.90;;;;;;5049649;28;20435;-52
2023/07/02 03:20:42;;;;;;;12.70;7.65;;;19.20;99.90;;;;;;5049498;28;20499;-52
2023/07/02 03:23:46;;;;;;;13.93;8.00;;;19.20;99.90;;;;;;5049293;28;20365;-54
2023/07/02 03:26:50;;;;;;;9.50;6.78;;;19.20;99.90;;;;;;5049362;28;20055;-54
2023/07/02 03:29:54;;;;;;;13.13;7.47;;;19.10;99.90;;;;;;5049480;28;20052;-54
2023/07/02 03:32:58;;;;;;;12.95;7.38;;;19.00;99.90;;;;;;5048983;28;20059;-55
2023/07/02 03:36:02;;;;;;;16.55;9.10;;;19.00;99.90;;;;;;5049150;28;20514;-55
2023/07/02 03:39:06;;;;;;;14.32;9.20;;;19.00;99.90;;;;;;5049252;28;20044;-53
2023/07/02 03:42:10;;;;;;;14.20;8.80;;;18.90;99.90;;;;;;5048866;28;20048;-53
2023/07/02 03:45:14;;;;;;;17.02;9.40;;;18.90;99.90;;;;;;5037115;28;20416;-54
2023/07/02 03:48:18;;;;;;;14.82;9.23;;;18.90;99.90;;;;;;5049368;28;20044;-51
2023/07/02 03:51:22;;;;;;;10.15;8.25;;;18.90;99.90;;;;;;5053149;28;20040;-51
2023/07/02 03:54:26;;;;;;;14.18;8.88;;;18.90;99.90;;;;;;5053315;28;20044;-51
2023/07/02 03:57:30;;;;;;;14.77;9.20;;;18.80;99.90;;;;;;5053025;28;20530;-54
2023/07/02 04:00:34;;;;;;;15.63;9.57;;;18.80;99.90;;;;;;5052877;28;20040;-55
2023/07/02 04:03:38;;;;;;;16.35;9.20;;;18.70;99.90;;;;;;5052622;28;20400;-51
2023/07/02 04:06:42;;;;;;;15.35;9.70;;;18.70;99.90;;;;;;5053122;28;20052;-53
2023/07/02 04:09:45;;;;;;;17.58;8.85;;;18.60;99.90;;;;;;5052904;28;20235;-55
2023/07/02 04:12:50;;;;;;;15.48;9.05;;;18.60;99.90;;;;;;5052292;28;20318;-54
2023/07/02 04:15:54;;;;;;;15.20;10.18;;;18.50;99.90;;;;;;5052452;28;20403;-54
2023/07/02 04:18:57;;;;;;;17.63;10.50;;;18.60;99.90;;;;;;5052620;28;20055;-52
2023/07/02 04:22:02;;;;;;;11.27;9.05;;;18.60;99.90;;;;;;5052367;28;20044;-53
2023/07/02 04:25:07;;;;;;;13.38;8.38;;;18.60;99.90;;;;;;5052271;28;20505;-54
2023/07/02 04:28:11;;;;;;;13.55;9.30;;;18.70;99.90;;;;;;5052419;28;20048;-51
2023/07/02 04:31:15;;;;;;;16.08;9.65;;;18.70;99.90;;;;;;5051032;28;20096;-52
2023/07/02 04:34:21;;;;;;;14.93;9.65;;;19.00;99.90;;;;;;5052194;28;20052;-55
2023/07/02 04:37:25;;;;;;;18.05;9.38;;;19.10;99.90;;;;;;5052022;28;20510;-51
2023/07/02 04:40:29;;;;;;;18.45;10.02;;;19.00;99.90;;;;;;5051918;28;20040;-52
2023/07/02 04:43:33;;;;;;;13.02;9.63;;;19.10;99.90;;;;;;5051833;28;20040;-55
2023/07/02 04:46:37;;;;;;;18.00;10.50;;;19.10;99.90;;;;;;5039414;28;20063;-52
2023/07/02 04:49:41;;;;;;;18.67;9.88;;;19.20;99.90;;;;;;5052018;28;20052;-50
2023/07/02 04:52:45;;;;;;;14.98;10.10;;;19.20;99.90;;;;;;5052177;28;20342;-51
2023/07/02 04:55:49;;;;;;;21.38;11.93;;;19.40;99.90;;;;;;5051871;28;20056;-54
2023/07/02 04:58:53;;;;;;;19.65;11.27;;;19.40;99.90;;;;;;5052123;28;20044;-55
2023/07/02 05:01:57;;;;;;;19.23;12.07;;;19.50;99.90;;;;;;5051326;28;20059;-55
2023/07/02 05:05:01;;;;;;;17.85;11.50;;;19.50;99.90;;;;;;5051548;28;20314;-53
2023/07/02 05:08:06;;;;;;;20.35;11.57;;;19.60;99.90;;;;;;5039500;28;20050;-55
2023/07/02 05:11:10;;;;;;;21.52;12.07;;;19.70;99.90;;;;;;5051735;28;20518;-54
2023/07/02 05:14:14;;;;;;;31.58;13.23;;;19.70;99.90;;;;;;5051743;28;20408;-55
2023/07/02 05:17:18;;;;;;;53.00;14.23;;;19.60;99.90;;;;;;5051485;28;20047;-55
2023/07/02 05:20:21;;;;;;;17.25;11.80;;;19.60;99.90;;;;;;5051542;28;20051;-53
2023/07/02 05:23:26;;;;;;;17.42;10.93;;;19.60;99.90;;;;;;5051403;28;20060;-55
2023/07/02 05:26:30;;;;;;;37.25;14.07;;;19.80;99.90;;;;;;5051685;28;20044;-55
2023/07/02 05:29:34;;;;;;;24.95;12.90;;;20.00;99.90;;;;;;5051514;28;20060;-56
2023/07/02 05:32:39;;;;;;;26.90;11.27;;;20.20;99.90;;;;;;5051216;28;20071;-55
2023/07/02 05:35:43;;;;;;;28.92;13.43;;;20.40;99.90;;;;;;5050644;28;20044;-55
2023/07/02 05:38:47;;;;;;;51.15;14.82;;;20.50;99.90;;;;;;5051266;28;20044;-53
2023/07/02 05:41:51;;;;;;;22.27;12.70;;;20.50;99.90;;;;;;5050874;28;20055;-52
2023/07/02 05:44:55;;;;;;;29.65;11.57;;;20.40;99.90;;;;;;5050863;28;20052;-53
2023/07/02 05:47:59;;;;;;;32.25;11.52;;;20.60;99.90;;;;;;5051008;28;20055;-55
2023/07/02 05:51:03;;;;;;;20.65;11.40;;;20.80;99.90;;;;;;5050840;28;20048;-55
2023/07/02 05:54:07;;;;;;;14.82;10.65;;;20.80;99.90;;;;;;5050593;28;20052;-52
2023/07/02 05:57:11;;;;;;;20.02;10.27;;;21.00;99.90;;;;;;5050498;28;20064;-53
2023/07/02 06:00:15;;;;;;;13.98;9.43;;;21.20;99.90;;;;;;5050635;28;20063;-54
2023/07/02 06:03:20;;;;;;;14.50;9.68;;;21.50;99.90;;;;;;5050453;28;20048;-54
2023/07/02 06:06:24;;;;;;;13.88;9.57;;;22.00;99.90;;;;;;5050315;28;20060;-55
2023/07/02 06:09:28;;;;;;;14.90;8.23;;;22.60;99.90;;;;;;5050505;28;20060;-55
2023/07/02 06:12:32;;;;;;;14.15;8.57;;;22.70;99.90;;;;;;5049612;28;20040;-53
2023/07/02 06:15:36;;;;;;;14.60;7.55;;;22.90;99.90;;;;;;5050124;28;20044;-52
2023/07/02 06:18:41;;;;;;;12.75;7.75;;;23.30;99.90;;;;;;5050459;28;20048;-51
2023/07/02 06:21:45;;;;;;;13.90;7.93;;;23.50;99.90;;;;;;5050274;28;20047;-55
2023/07/02 06:24:49;;;;;;;11.15;8.40;;;24.10;99.90;;;;;;5050200;28;20052;-55
2023/07/02 06:27:55;;;;;;;13.25;7.00;;;24.50;99.90;;;;;;5050495;28;20052;-51
2023/07/02 06:30:59;;;;;;;11.25;5.93;;;24.70;99.90;;;;;;5050321;28;20044;-54
2023/07/02 06:34:03;;;;;;;10.63;7.28;;;26.20;99.90;;;;;;5050269;28;20510;-55
2023/07/02 06:37:07;;;;;;;13.98;8.15;;;25.20;99.90;;;;;;5049812;28;20048;-52
2023/07/02 06:40:11;;;;;;;13.77;7.65;;;26.10;99.90;;;;;;5037839;28;20044;-55
2023/07/02 06:43:15;;;;;;;11.32;6.82;;;25.70;99.90;;;;;;5049849;28;20040;-52
2023/07/02 06:46:19;;;;;;;13.77;7.13;;;25.90;99.90;;;;;;5049447;28;20048;-55
2023/07/02 06:49:24;;;;;;;15.48;6.95;;;26.60;99.90;;;;;;5050031;28;20605;-56
2023/07/02 06:52:27;;;;;;;10.80;5.38;;;27.00;99.90;;;;;;5049630;28;20059;-56
2023/07/02 06:55:32;;;;;;;8.13;5.88;;;28.80;99.90;;;;;;5049610;28;20051;-54
2023/07/02 06:58:36;;;;;;;12.18;5.57;;;29.70;99.90;;;;;;5049742;28;20392;-55
2023/07/02 07:01:39;;;;;;;8.88;5.60;;;29.00;99.90;;;;;;5049452;28;20046;-55
2023/07/02 07:04:43;;;;;;;14.65;6.13;;;29.60;99.90;;;;;;5049740;28;20052;-56
2023/07/02 07:07:47;;;;;;;9.35;5.57;;;29.40;99.90;;;;;;5049830;28;20044;-55
2023/07/02 07:10:51;;;;;;;8.65;5.20;;;29.80;99.90;;;;;;5049562;28;20056;-52
2023/07/02 07:13:55;;;;;;;9.77;5.93;;;29.50;99.90;;;;;;5049708;28;20056;-53
2023/07/02 07:16:59;;;;;;;11.20;5.95;;;29.20;99.90;;;;;;5049182;28;20048;-57
2023/07/02 07:20:04;;;;;;;8.07;5.43;;;28.80;99.90;;;;;;5049702;28;20411;-57
2023/07/02 07:23:09;;;;;;;11.43;6.25;;;28.80;99.90;;;;;;5050363;28;20048;-56
2023/07/02 07:26:13;;;;;;;10.00;6.22;;;28.80;99.90;;;;;;5053521;28;20063;-55
2023/07/02 07:29:17;;;;;;;12.90;6.38;;;29.00;99.90;;;;;;5053743;28;20064;-52
2023/07/02 07:32:21;;;;;;;7.43;5.38;;;30.50;99.90;;;;;;5053308;28;20048;-55
2023/07/02 07:35:25;;;;;;;12.77;5.38;;;32.00;99.90;;;;;;5053236;28;20044;-55
2023/07/02 07:38:29;;;;;;;11.60;5.22;;;33.00;99.90;;;;;;5033497;28;20052;-53
2023/07/02 07:41:33;;;;;;;8.88;5.85;;;33.60;99.90;;;;;;5033257;28;20072;-52
2023/07/02 07:44:37;;;;;;;11.68;5.75;;;32.60;99.90;;;;;;5033533;28;20408;-53
2023/07/02 07:47:41;;;;;;;11.40;5.30;;;29.20;99.90;;;;;;5032683;28;20052;-52
2023/07/02 07:50:45;;;;;;;6.82;5.20;;;30.40;99.90;;;;;;5033232;28;20052;-56
2023/07/02 07:53:48;;;;;;;8.20;5.22;;;32.00;99.90;;;;;;5033239;28;20157;-55
2023/07/02 07:56:52;;;;;;;9.55;5.22;;;33.40;99.90;;;;;;5032564;28;20051;-56
2023/07/02 07:59:56;;;;;;;8.10;5.45;;;33.50;99.90;;;;;;5032897;28;20048;-53
2023/07/02 08:03:01;;;;;;;9.75;5.22;;;32.10;99.90;;;;;;5032791;28;20045;-53
2023/07/02 08:06:05;;;;;;;10.23;5.07;;;30.10;99.90;;;;;;5032859;28;20056;-52
2023/07/02 08:09:11;;;;;;;7.45;4.90;;;30.40;99.90;;;;;;5032891;28;20044;-56
2023/07/02 08:12:15;;;;;;;6.47;4.80;;;31.60;99.90;;;;;;5032467;28;20060;-54
2023/07/02 08:15:19;;;;;;;9.10;4.68;;;31.40;99.90;;;;;;5033178;28;20060;-55
2023/07/02 08:18:22;;;;;;;6.20;4.43;;;30.80;99.90;;;;;;5032979;28;20056;-52
2023/07/02 08:21:26;;;;;;;9.40;4.65;;;31.70;99.90;;;;;;5032928;28;20044;-55
2023/07/02 08:24:33;;;;;;;6.05;4.43;;;32.10;99.90;;;;;;5032867;28;20049;-56
2023/07/02 08:27:37;;;;;;;10.13;4.70;;;32.70;99.90;;;;;;5032667;28;20049;-56
2023/07/02 08:30:41;;;;;;;7.43;4.78;;;32.90;99.90;;;;;;5032976;28;20498;-54
2023/07/02 08:33:45;;;;;;;7.47;4.47;;;32.50;99.90;;;;;;5032644;28;20131;-53
2023/07/02 08:36:51;;;;;;;8.90;4.35;;;32.90;99.90;;;;;;5032188;28;20416;-56
2023/07/02 08:39:55;;;;;;;6.80;4.13;;;33.80;99.90;;;;;;5032466;28;20036;-55
2023/07/02 08:42:59;;;;;;;7.80;4.32;;;35.30;99.90;;;;;;5032444;28;20049;-54
2023/07/02 08:46:03;;;;;;;4.82;3.78;;;37.50;98.00;;;;;;5033280;28;20499;-54
2023/07/02 08:49:08;;;;;;;6.22;3.97;;;39.50;96.00;;;;;;5032372;28;20507;-56
2023/07/02 08:52:12;;;;;;;5.80;3.65;;;38.90;94.20;;;;;;5032017;28;20404;-52
2023/07/02 08:55:16;;;;;;;4.65;3.70;;;39.40;94.30;;;;;;5032387;28;20052;-55
2023/07/02 08:58:20;;;;;;;6.18;3.47;;;40.70;94.20;;;;;;5031956;28;20052;-56
2023/07/02 09:01:24;;;;;;;6.68;3.80;;;41.30;93.90;;;;;;5032010;28;20052;-52
2023/07/02 09:04:28;;;;;;;6.15;3.88;;;40.30;93.50;;;;;;5032196;28;20060;-55
2023/07/02 09:07:43;;;;;;;5.28;3.42;;;40.40;93.00;;;;;;5031967;28;20239;-54
2023/07/02 09:10:47;;;;;;;6.15;3.72;;;39.70;93.00;;;;;;5032064;28;20048;-56
2023/07/02 09:13:53;;;;;;;5.63;3.80;;;38.20;93.70;;;;;;5031731;28;20048;-56
2023/07/02 09:17:04;;;;;;;6.28;3.75;;;39.50;93.20;;;;;;5030965;28;20052;-54
2023/07/02 09:20:08;;;;;;;7.55;3.92;;;41.50;91.70;;;;;;5031453;28;20444;-51
2023/07/02 09:23:12;;;;;;;4.07;3.40;;;41.10;90.60;;;;;;5031359;28;20048;-56
2023/07/02 09:26:23;;;;;;;3.28;2.72;;;42.00;90.60;;;;;;5031553;28;20048;-51
2023/07/02 09:29:29;;;;;;;3.45;3.03;;;43.40;90.40;;;;;;5031047;28;20053;-54
2023/07/02 09:32:34;;;;;;;6.05;3.47;;;44.90;88.50;;;;;;5031245;28;20315;-51
2023/07/02 09:35:38;;;;;;;5.03;3.10;;;45.40;85.00;;;;;;5031403;28;20424;-53
2023/07/02 09:38:42;;;;;;;3.92;3.25;;;46.20;84.90;;;;;;5031043;28;20515;-55
2023/07/02 09:41:49;;;;;;;4.30;3.17;;;47.50;82.30;;;;;;5031073;28;20036;-53
2023/07/02 09:44:55;;;;;;;3.97;3.20;;;46.10;80.70;;;;;;5031233;28;20037;-52
2023/07/02 09:48:00;;;;;;;6.22;3.92;;;42.60;83.10;;;;;;5030950;28;20052;-54
2023/07/02 09:51:04;;;;;;;7.13;3.75;;;38.50;87.60;;;;;;5030559;28;20045;-52
2023/07/02 09:54:08;;;;;;;8.13;3.85;;;35.90;91.90;;;;;;5031067;28;20044;-54
2023/07/02 09:57:12;;;;;;;4.47;3.63;;;35.40;92.70;;;;;;5030684;28;20045;-54
2023/07/02 10:00:16;;;;;;;6.10;3.65;;;35.80;91.90;;;;;;5030615;28;20116;-54
2023/07/02 10:03:29;;;;;;;8.68;3.80;;;34.80;91.80;;;;;;5030877;28;20044;-53
2023/07/02 10:06:53;;;;;;;6.38;3.90;;;35.00;93.00;;;;;;5031193;28;20411;-58
2023/07/02 10:09:56;;;;;;;5.20;3.80;;;35.80;93.50;;;;;;5030759;28;20057;-55
2023/07/02 10:13:01;;;;;;;5.53;3.65;;;37.80;91.30;;;;;;5030530;28;20057;-54
2023/07/02 10:16:06;;;;;;;4.72;3.88;;;38.60;88.00;;;;;;5030727;28;20060;-51
2023/07/02 10:19:12;;;;;;;7.20;4.10;;;37.30;91.70;;;;;;5030322;28;20048;-54
2023/07/02 10:22:16;;;;;;;6.72;3.90;;;37.30;91.20;;;;;;5030354;28;20044;-51
2023/07/02 10:25:31;;;;;;;4.70;3.63;;;36.20;92.30;;;;;;5030458;28;20503;-53
2023/07/02 10:28:35;;;;;;;6.25;4.03;;;38.10;90.40;;;;;;5030053;28;20056;-51
2023/07/02 10:31:52;;;;;;;4.03;3.38;;;37.30;90.00;;;;;;5029764;28;20057;-52
2023/07/02 10:34:56;;;;;;;6.45;4.30;;;37.00;91.20;;;;;;5030260;28;20044;-54
2023/07/02 10:38:00;;;;;;;5.60;3.25;;;40.30;90.60;;;;;;5029795;28;20048;-55
2023/07/02 10:41:04;;;;;;;7.45;4.82;;;41.10;88.90;;;;;;5030159;28;20049;-56
2023/07/02 10:44:11;;;;;;;6.03;4.07;;;39.80;89.70;;;;;;5030194;28;20052;-52
2023/07/02 10:47:15;;;;;;;5.88;4.00;;;38.40;90.90;;;;;;5030348;28;20040;-51
2023/07/02 10:50:21;;;;;;;5.43;3.67;;;38.80;90.60;;;;;;5029768;28;20052;-52
2023/07/02 10:53:25;;;;;;;4.70;3.58;;;39.00;91.20;;;;;;5029993;28;20056;-55
2023/07/02 10:56:29;;;;;;;7.45;4.22;;;38.30;90.70;;;;;;5029721;28;20491;-55
2023/07/02 10:59:33;;;;;;;8.07;4.38;;;36.30;91.90;;;;;;5029264;28;20040;-55
2023/07/02 11:02:40;;;;;;;7.15;4.25;;;36.20;92.00;;;;;;5029776;28;20053;-51
2023/07/02 11:05:45;;;;;;;6.53;4.70;;;38.10;92.30;;;;;;5029588;28;20044;-56
2023/07/02 11:08:49;;;;;;;6.57;4.53;;;40.00;90.30;;;;;;5029666;28;20060;-54
2023/07/02 11:11:58;;;;;;;8.88;4.70;;;40.40;88.60;;;;;;5029814;28;20044;-54
2023/07/02 11:15:17;;;;;;;6.00;3.03;;;41.30;88.70;;;;;;5017696;28;20046;-56
2023/07/02 11:18:21;;;;;;;5.70;3.50;;;40.20;86.00;;;;;;5024934;28;20428;-52
2023/07/02 11:21:25;;;;;;;4.22;2.90;;;40.50;86.30;;;;;;5010236;28;20114;-55
2023/07/02 11:24:34;;;;;;;5.18;3.33;;;41.60;84.60;;;;;;5010300;28;20045;-52
2023/07/02 11:27:39;;;;;;;6.13;3.50;;;42.30;85.50;;;;;;5010451;28;20041;-55
2023/07/02 11:30:46;;;;;;;7.38;4.15;;;41.10;84.10;;;;;;5010165;28;20049;-55
2023/07/02 11:33:51;;;;;;;5.10;3.88;;;39.60;88.10;;;;;;5010143;28;20417;-52
2023/07/02 11:36:55;;;;;;;8.75;3.60;;;35.30;89.80;;;;;;5010098;28;20112;-55
2023/07/02 11:39:59;;;;;;;5.05;3.60;;;34.90;92.40;;;;;;5009745;28;20057;-53
2023/07/02 11:43:03;;;;;;;6.70;3.85;;;36.40;92.00;;;;;;5009985;28;20172;-51
2023/07/02 11:46:07;;;;;;;5.95;3.67;;;37.20;90.90;;;;;;5010303;28;20049;-53
2023/07/02 11:49:11;;;;;;;7.18;4.05;;;37.20;87.40;;;;;;5009702;28;20049;-54
2023/07/02 11:52:15;;;;;;;4.60;3.45;;;34.60;89.70;;;;;;5009754;28;20052;-51
2023/07/02 11:55:19;;;;;;;4.45;3.40;;;36.50;91.20;;;;;;5009727;28;20045;-53
2023/07/02 11:58:24;;;;;;;8.18;3.67;;;37.90;91.60;;;;;;5009814;28;20061;-51
2023/07/02 12:01:27;;;;;;;5.00;3.47;;;36.60;90.20;;;;;;5009575;28;20045;-51
2023/07/02 12:04:31;;;;;;;7.60;3.65;;;37.60;91.50;;;;;;5009873;28;20040;-53
2023/07/02 12:07:35;;;;;;;4.88;3.22;;;37.20;91.60;;;;;;5010068;28;20057;-53
2023/07/02 12:10:40;;;;;;;5.10;3.58;;;36.50;91.70;;;;;;5011141;28;20053;-55
2023/07/02 12:13:44;;;;;;;6.95;3.70;;;35.80;91.90;;;;;;5013061;28;20048;-55
2023/07/02 12:16:48;;;;;;;5.70;3.28;;;35.70;92.00;;;;;;5013039;28;20523;-55
2023/07/02 12:19:52;;;;;;;4.75;3.45;;;36.00;90.60;;;;;;5012554;28;20045;-52
2023/07/02 12:22:57;;;;;;;6.15;3.75;;;36.70;90.60;;;;;;5012570;28;20053;-55
2023/07/02 12:26:01;;;;;;;6.85;3.70;;;37.30;90.80;;;;;;5012778;28;20053;-56
2023/07/02 12:29:05;;;;;;;5.18;3.50;;;34.70;90.40;;;;;;5012874;28;20101;-55
2023/07/02 12:32:09;;;;;;;6.60;3.67;;;34.40;92.10;;;;;;5012597;28;20045;-56
2023/07/02 12:35:13;;;;;;;6.72;3.40;;;35.00;92.40;;;;;;5012401;28;20048;-55
2023/07/02 12:38:17;;;;;;;9.32;4.05;;;33.50;90.90;;;;;;5012237;28;20049;-53
2023/07/02 12:41:21;;;;;;;6.72;3.33;;;33.80;93.00;;;;;;5012111;28;20045;-57
2023/07/02 12:44:25;;;;;;;7.22;3.35;;;35.10;92.00;;;;;;5012759;28;20041;-56
2023/07/02 12:47:28;;;;;;;5.18;3.33;;;35.90;91.50;;;;;;5029257;28;20095;-57
2023/07/02 12:50:33;;;;;;;6.93;3.20;;;36.00;90.80;;;;;;5031604;28;20056;-53
2023/07/02 12:53:36;;;;;;;7.10;3.38;;;35.70;92.40;;;;;;5026824;28;20041;-52
2023/07/02 12:56:41;;;;;;;6.70;3.60;;;36.50;90.30;;;;;;5012301;28;20511;-53
2023/07/02 12:59:46;;;;;;;6.32;3.25;;;35.30;91.00;;;;;;5020051;28;20053;-52
2023/07/02 13:02:49;;;;;;;5.70;3.08;;;35.80;91.10;;;;;;5022596;28;20044;-54
2023/07/02 13:05:54;;;;;;;5.18;3.25;;;36.00;91.50;;;;;;5025023;28;20044;-56
2023/07/02 13:08:58;;;;;;;3.60;3.03;;;36.40;91.20;;;;;;5015987;28;20052;-56
2023/07/02 13:12:03;;;;;;;5.10;3.38;;;37.20;90.90;;;;;;5016819;28;20057;-55
2023/07/02 13:15:07;;;;;;;7.50;3.50;;;36.30;90.50;;;;;;5022645;28;20045;-54
2023/07/02 13:18:11;;;;;;;5.03;3.33;;;36.20;90.60;;;;;;5022432;28;20052;-56
2023/07/02 13:21:16;;;;;;;5.13;3.50;;;34.10;92.00;;;;;;5019537;28;20032;-57
2023/07/02 13:24:20;;;;;;;5.22;3.55;;;34.40;92.30;;;;;;5025291;28;20041;-55
2023/07/02 13:27:24;;;;;;;7.75;3.47;;;34.40;92.30;;;;;;5022066;28;20055;-54
2023/07/02 13:30:30;;;;;;;7.68;3.38;;;33.00;92.40;;;;;;5022161;28;20057;-56
2023/07/02 13:33:34;;;;;;;6.93;3.33;;;32.60;92.50;;;;;;5020811;28;20036;-54
2023/07/02 13:36:38;;;;;;;8.80;4.28;;;32.60;93.70;;;;;;5021442;28;20282;-56
2023/07/02 13:39:42;;;;;;;5.88;3.55;;;33.40;92.20;;;;;;5024878;28;20052;-53
2023/07/02 13:42:46;;;;;;;6.88;3.75;;;32.70;92.30;;;;;;5025484;28;20056;-54
2023/07/02 13:45:50;;;;;;;5.47;3.50;;;30.60;93.10;;;;;;5030604;28;20045;-57
2023/07/02 13:48:54;;;;;;;6.30;3.85;;;30.40;94.10;;;;;;5030453;28;20052;-56
2023/07/02 13:51:58;;;;;;;6.00;3.53;;;30.20;95.10;;;;;;5029786;28;20089;-55
2023/07/02 13:55:03;;;;;;;7.70;3.78;;;31.00;95.20;;;;;;5018739;28;20514;-55
2023/07/02 13:58:07;;;;;;;6.65;3.55;;;31.90;94.00;;;;;;5030421;28;20511;-52
2023/07/02 14:01:11;;;;;;;5.60;3.25;;;31.90;94.30;;;;;;5030279;28;20052;-54
2023/07/02 14:04:16;;;;;;;7.78;3.70;;;32.20;94.10;;;;;;5030394;28;20045;-55
2023/07/02 14:07:20;;;;;;;6.38;3.25;;;32.20;94.40;;;;;;5030438;28;20052;-54
2023/07/02 14:10:24;;;;;;;5.40;3.60;;;32.70;93.60;;;;;;5029721;28;20055;-56
2023/07/02 14:13:28;;;;;;;7.22;3.05;;;33.10;93.30;;;;;;5029926;28;20061;-54
2023/07/02 14:16:32;;;;;;;4.75;3.08;;;33.30;94.00;;;;;;5009349;28;20040;-55
2023/07/02 14:19:36;;;;;;;6.75;3.22;;;33.50;92.80;;;;;;5024760;28;20044;-56
2023/07/02 14:22:40;;;;;;;6.35;3.38;;;33.60;92.10;;;;;;5019002;28;20531;-57
2023/07/02 14:25:44;;;;;;;9.75;4.18;;;33.80;92.30;;;;;;5012316;28;20045;-53
2023/07/02 14:28:48;;;;;;;7.68;3.40;;;33.40;92.60;;;;;;5008653;28;20425;-54
2023/07/02 14:31:52;;;;;;;5.30;3.35;;;33.30;92.80;;;;;;5008276;28;20049;-52
2023/07/02 14:34:56;;;;;;;6.25;3.10;;;33.20;92.50;;;;;;5009553;28;20049;-53
2023/07/02 14:38:00;;;;;;;10.80;3.67;;;32.60;91.70;;;;;;5010104;28;20065;-57
2023/07/02 14:41:04;;;;;;;6.38;3.47;;;32.00;92.40;;;;;;5009716;28;20049;-56
2023/07/02 14:44:08;;;;;;;8.27;3.35;;;32.30;93.20;;;;;;5009881;28;20044;-52
2023/07/02 14:47:12;;;;;;;10.85;3.88;;;32.60;93.50;;;;;;5010094;28;20053;-55
2023/07/02 14:50:17;;;;;;;4.97;2.95;;;32.80;92.80;;;;;;5009877;28;20080;-55
2023/07/02 14:53:21;;;;;;;3.60;2.88;;;32.90;92.10;;;;;;5009844;28;20053;-53
2023/07/02 14:56:26;;;;;;;4.78;3.05;;;32.70;93.00;;;;;;5009406;28;20061;-55
2023/07/02 14:59:30;;;;;;;6.57;3.60;;;32.50;93.50;;;;;;5009744;28;20041;-56
2023/07/02 15:02:34;;;;;;;4.47;3.13;;;32.50;92.50;;;;;;5009325;28;20037;-55
2023/07/02 15:05:39;;;;;;;5.20;3.25;;;31.90;93.40;;;;;;5009275;28;20052;-54
2023/07/02 15:08:43;;;;;;;5.22;3.30;;;31.20;93.80;;;;;;5009150;28;20041;-52
2023/07/02 15:11:47;;;;;;;6.80;3.80;;;31.70;94.40;;;;;;5009366;28;20053;-55
2023/07/02 15:14:51;;;;;;;4.40;3.25;;;32.20;93.60;;;;;;5009746;28;20524;-52
2023/07/02 15:17:55;;;;;;;4.60;3.15;;;32.30;93.50;;;;;;5009753;28;20041;-52
2023/07/02 15:20:59;;;;;;;5.85;3.58;;;32.30;93.80;;;;;;5009693;28;20049;-54
2023/07/02 15:24:03;;;;;;;6.13;3.42;;;32.40;93.80;;;;;;5009332;28;20045;-54
2023/07/02 15:27:08;;;;;;;5.25;3.22;;;32.20;94.20;;;;;;5009596;28;20045;-52
2023/07/02 15:30:11;;;;;;;7.07;3.45;;;32.00;93.90;;;;;;5009551;28;20057;-53
2023/07/02 15:33:16;;;;;;;7.10;3.03;;;31.60;94.20;;;;;;5009155;28;20045;-55
2023/07/02 15:36:21;;;;;;;5.70;3.47;;;31.30;94.20;;;;;;5009523;28;20535;-52
2023/07/02 15:39:32;;;;;;;5.22;3.35;;;31.30;94.40;;;;;;5009334;28;20132;-56
2023/07/02 15:42:36;;;;;;;6.40;3.28;;;31.40;94.00;;;;;;5009119;28;20524;-56
2023/07/02 15:45:39;;;;;;;6.85;3.20;;;31.20;93.90;;;;;;5012478;28;20049;-51
2023/07/02 15:48:44;;;;;;;5.43;3.15;;;30.90;93.40;;;;;;5012966;28;20044;-56
2023/07/02 15:51:48;;;;;;;7.47;3.30;;;31.10;93.50;;;;;;5012492;28;20243;-54